SWR94 EGKK-LSZH
Flight info
| Callsign | SWR94 |
|---|---|
| Flight time | N/A |
| Altitude | 29000 |
| Route | BOGNA L612 BENBO UL612 VEULE DCT TEPRI UN491 POGZI DCT GELTA DCT MANAG DCT PEVIT DCT BLM |
| Aircraft | A320/M-SDE3FGHIRWY/LB1 |
Departure
| Time | 2026-04-14 16:42 |
|---|---|
| Airport | London Gatwick Airport (EGKK) |
Arrival
| Time | N/A |
|---|---|
| Airport | Zürich Airport (LSZH) |
| Time | Latitude | Longitude | Altitude | Speed | Heading |
|---|---|---|---|---|---|
| 2026-04-14 16:05 | 51.15656 | -0.17794 | 205 ft | 0 kts | 167° |
| 2026-04-14 16:25 | 51.15657 | -0.17795 | 205 ft | 2 kts | 167° |
| 2026-04-14 16:25 | 51.15682 | -0.17804 | 214 ft | 4 kts | 166° |
| 2026-04-14 16:25 | 51.15706 | -0.17816 | 217 ft | 4 kts | 137° |
| 2026-04-14 16:25 | 51.15715 | -0.17848 | 215 ft | 3 kts | 78° |
| 2026-04-14 16:26 | 51.15712 | -0.17875 | 211 ft | 0 kts | 77° |
| 2026-04-14 16:33 | 51.15712 | -0.17874 | 211 ft | 1 kts | 77° |
| 2026-04-14 16:33 | 51.15718 | -0.17827 | 217 ft | 10 kts | 77° |
| 2026-04-14 16:33 | 51.15738 | -0.17685 | 212 ft | 12 kts | 77° |
| 2026-04-14 16:33 | 51.15752 | -0.17583 | 212 ft | 9 kts | 77° |
| 2026-04-14 16:34 | 51.15735 | -0.17514 | 217 ft | 7 kts | 158° |
| 2026-04-14 16:34 | 51.15681 | -0.17490 | 210 ft | 9 kts | 168° |
| 2026-04-14 16:34 | 51.15610 | -0.17467 | 210 ft | 12 kts | 168° |
| 2026-04-14 16:34 | 51.15525 | -0.17434 | 205 ft | 14 kts | 167° |
| 2026-04-14 16:35 | 51.15425 | -0.17398 | 211 ft | 16 kts | 167° |
| 2026-04-14 16:35 | 51.15313 | -0.17360 | 205 ft | 17 kts | 169° |
| 2026-04-14 16:35 | 51.15243 | -0.17282 | 216 ft | 10 kts | 92° |
| 2026-04-14 16:35 | 51.15251 | -0.17201 | 207 ft | 3 kts | 76° |
| 2026-04-14 16:36 | 51.15254 | -0.17184 | 205 ft | 0 kts | 77° |
| 2026-04-14 16:36 | 51.15253 | -0.17177 | 205 ft | 3 kts | 91° |
| 2026-04-14 16:37 | 51.15224 | -0.17149 | 209 ft | 8 kts | 160° |
| 2026-04-14 16:37 | 51.15200 | -0.17059 | 208 ft | 12 kts | 76° |
| 2026-04-14 16:37 | 51.15214 | -0.16968 | 205 ft | 8 kts | 77° |
| 2026-04-14 16:37 | 51.15218 | -0.16944 | 214 ft | 0 kts | 77° |
| 2026-04-14 16:38 | 51.15220 | -0.16932 | 205 ft | 0 kts | 77° |
| 2026-04-14 16:40 | 51.15220 | -0.16927 | 206 ft | 3 kts | 77° |
| 2026-04-14 16:40 | 51.15227 | -0.16868 | 206 ft | 6 kts | 89° |
| 2026-04-14 16:40 | 51.15215 | -0.16820 | 210 ft | 5 kts | 128° |
| 2026-04-14 16:41 | 51.15171 | -0.16793 | 210 ft | 9 kts | 175° |
| 2026-04-14 16:41 | 51.15115 | -0.16867 | 211 ft | 15 kts | 249° |
| 2026-04-14 16:41 | 51.15054 | -0.17330 | 215 ft | 79 kts | 255° |
| 2026-04-14 16:41 | 51.14876 | -0.18516 | 210 ft | 139 kts | 257° |
| 2026-04-14 16:42 | 51.14659 | -0.20160 | 648 ft | 149 kts | 257° |
| 2026-04-14 16:42 | 51.14459 | -0.21778 | 1467 ft | 150 kts | 253° |
| 2026-04-14 16:42 | 51.14218 | -0.23490 | 1948 ft | 169 kts | 254° |
| 2026-04-14 16:42 | 51.14071 | -0.24506 | 2161 ft | 181 kts | 254° |
| 2026-04-14 16:43 | 51.13771 | -0.26584 | 2591 ft | 204 kts | 255° |
| 2026-04-14 16:43 | 51.13446 | -0.28883 | 3237 ft | 217 kts | 256° |
| 2026-04-14 16:43 | 51.13119 | -0.31232 | 4189 ft | 218 kts | 256° |
| 2026-04-14 16:43 | 51.12650 | -0.33518 | 5112 ft | 217 kts | 236° |
| 2026-04-14 16:44 | 51.11537 | -0.35091 | 6020 ft | 217 kts | 204° |
| 2026-04-14 16:44 | 51.10061 | -0.35402 | 6928 ft | 217 kts | 172° |
| 2026-04-14 16:44 | 51.08621 | -0.34728 | 7814 ft | 214 kts | 162° |
| 2026-04-14 16:45 | 51.05974 | -0.33065 | 9629 ft | 196 kts | 161° |
| 2026-04-14 16:45 | 51.04644 | -0.32213 | 9934 ft | 218 kts | 161° |
| 2026-04-14 16:45 | 51.03164 | -0.31279 | 10207 ft | 241 kts | 161° |
| 2026-04-14 16:45 | 51.01526 | -0.30258 | 10517 ft | 265 kts | 161° |
| 2026-04-14 16:46 | 50.99737 | -0.29153 | 10808 ft | 288 kts | 161° |
| 2026-04-14 16:46 | 50.97787 | -0.27962 | 11065 ft | 312 kts | 161° |
| 2026-04-14 16:46 | 50.95689 | -0.26690 | 11322 ft | 334 kts | 161° |
| 2026-04-14 16:46 | 50.93484 | -0.25357 | 11910 ft | 343 kts | 161° |
| 2026-04-14 16:47 | 50.91238 | -0.23999 | 12623 ft | 348 kts | 161° |
| 2026-04-14 16:47 | 50.88959 | -0.22621 | 13353 ft | 353 kts | 161° |
| 2026-04-14 16:47 | 50.86649 | -0.21222 | 14055 ft | 358 kts | 161° |
| 2026-04-14 16:47 | 50.84311 | -0.19804 | 14655 ft | 363 kts | 161° |
| 2026-04-14 16:48 | 50.81933 | -0.18361 | 15251 ft | 369 kts | 161° |
| 2026-04-14 16:48 | 50.79521 | -0.16895 | 15823 ft | 374 kts | 161° |
| 2026-04-14 16:48 | 50.77070 | -0.15407 | 16080 ft | 379 kts | 161° |
| 2026-04-14 16:48 | 50.74607 | -0.13912 | 16137 ft | 380 kts | 161° |
| 2026-04-14 16:49 | 50.72139 | -0.12413 | 16143 ft | 380 kts | 161° |
| 2026-04-14 16:49 | 50.69671 | -0.10917 | 16140 ft | 380 kts | 161° |
| 2026-04-14 16:49 | 50.67206 | -0.09421 | 16257 ft | 380 kts | 161° |
| 2026-04-14 16:49 | 50.64732 | -0.07921 | 16494 ft | 382 kts | 161° |
| 2026-04-14 16:50 | 50.62238 | -0.06411 | 16779 ft | 385 kts | 161° |
| 2026-04-14 16:50 | 50.59726 | -0.04893 | 17030 ft | 389 kts | 161° |
| 2026-04-14 16:50 | 50.57191 | -0.03362 | 17124 ft | 390 kts | 161° |
| 2026-04-14 16:50 | 50.54691 | -0.01852 | 17138 ft | 391 kts | 161° |
| 2026-04-14 16:51 | 50.52152 | -0.00321 | 17143 ft | 391 kts | 161° |
| 2026-04-14 16:51 | 50.49612 | 0.01209 | 17137 ft | 391 kts | 161° |
| 2026-04-14 16:51 | 50.47070 | 0.02759 | 17414 ft | 394 kts | 159° |
| 2026-04-14 16:51 | 50.44629 | 0.04794 | 18041 ft | 401 kts | 152° |
| 2026-04-14 16:52 | 50.42188 | 0.06975 | 18587 ft | 406 kts | 152° |
| 2026-04-14 16:52 | 50.39721 | 0.09195 | 19068 ft | 412 kts | 152° |
| 2026-04-14 16:52 | 50.37222 | 0.11448 | 19565 ft | 417 kts | 152° |
| 2026-04-14 16:52 | 50.34695 | 0.13723 | 20073 ft | 421 kts | 152° |
| 2026-04-14 16:53 | 50.32138 | 0.16018 | 20589 ft | 426 kts | 152° |
| 2026-04-14 16:53 | 50.29551 | 0.18338 | 21067 ft | 431 kts | 152° |
| 2026-04-14 16:53 | 50.26938 | 0.20680 | 21561 ft | 436 kts | 152° |
| 2026-04-14 16:53 | 50.24291 | 0.23047 | 22037 ft | 440 kts | 152° |
| 2026-04-14 16:54 | 50.21620 | 0.25429 | 22503 ft | 445 kts | 152° |
| 2026-04-14 16:54 | 50.18936 | 0.27877 | 22942 ft | 450 kts | 150° |
| 2026-04-14 16:54 | 50.16274 | 0.30492 | 23384 ft | 454 kts | 148° |
| 2026-04-14 16:54 | 50.13628 | 0.33230 | 23797 ft | 459 kts | 147° |
| 2026-04-14 16:55 | 50.10981 | 0.36037 | 24173 ft | 462 kts | 147° |
| 2026-04-14 16:55 | 50.08320 | 0.38868 | 24553 ft | 465 kts | 147° |
| 2026-04-14 16:55 | 50.05631 | 0.41696 | 24916 ft | 468 kts | 147° |
| 2026-04-14 16:55 | 50.02918 | 0.44507 | 25288 ft | 470 kts | 147° |
| 2026-04-14 16:56 | 50.00178 | 0.47308 | 25666 ft | 472 kts | 148° |
| 2026-04-14 16:56 | 49.97421 | 0.50102 | 26022 ft | 475 kts | 148° |
| 2026-04-14 16:56 | 49.94646 | 0.52906 | 26376 ft | 477 kts | 148° |
| 2026-04-14 16:56 | 49.91858 | 0.55722 | 26728 ft | 479 kts | 148° |
| 2026-04-14 16:57 | 49.89060 | 0.58550 | 27088 ft | 481 kts | 148° |
| 2026-04-14 16:57 | 49.86312 | 0.61543 | 27421 ft | 484 kts | 141° |
| 2026-04-14 16:57 | 49.83835 | 0.65095 | 27752 ft | 486 kts | 133° |
| 2026-04-14 16:57 | 49.81556 | 0.68978 | 28085 ft | 489 kts | 132° |
| 2026-04-14 16:58 | 49.79267 | 0.72881 | 28418 ft | 490 kts | 132° |
| 2026-04-14 16:58 | 49.76965 | 0.76787 | 28734 ft | 492 kts | 132° |
| 2026-04-14 16:58 | 49.74650 | 0.80702 | 29035 ft | 494 kts | 132° |
| 2026-04-14 16:58 | 49.72331 | 0.84614 | 29145 ft | 491 kts | 132° |
| 2026-04-14 16:59 | 49.67740 | 0.92333 | 29151 ft | 486 kts | 132° |
| 2026-04-14 16:59 | 49.63176 | 1.00003 | 29159 ft | 485 kts | 132° |
| 2026-04-14 17:00 | 49.58614 | 1.07643 | 29166 ft | 484 kts | 132° |
| 2026-04-14 17:00 | 49.54056 | 1.15250 | 29162 ft | 482 kts | 133° |
| 2026-04-14 17:01 | 49.49538 | 1.22775 | 29176 ft | 481 kts | 133° |
| 2026-04-14 17:01 | 49.44964 | 1.30380 | 29173 ft | 480 kts | 133° |
| 2026-04-14 17:02 | 49.40457 | 1.37843 | 29177 ft | 479 kts | 133° |
| 2026-04-14 17:02 | 49.35894 | 1.45374 | 29179 ft | 478 kts | 133° |
| 2026-04-14 17:03 | 49.31368 | 1.52818 | 29184 ft | 477 kts | 133° |
| 2026-04-14 17:03 | 49.26844 | 1.60238 | 29180 ft | 475 kts | 133° |
| 2026-04-14 17:04 | 49.22359 | 1.67561 | 29184 ft | 473 kts | 133° |
| 2026-04-14 17:04 | 49.17871 | 1.74887 | 29188 ft | 471 kts | 133° |
| 2026-04-14 17:05 | 49.13399 | 1.82174 | 29194 ft | 469 kts | 133° |
| 2026-04-14 17:05 | 49.08944 | 1.89418 | 29196 ft | 467 kts | 134° |
| 2026-04-14 17:06 | 49.05966 | 1.94238 | 29187 ft | 466 kts | 134° |
| 2026-04-14 17:06 | 49.02056 | 2.00557 | 29190 ft | 465 kts | 134° |
| 2026-04-14 17:07 | 48.97613 | 2.07685 | 29190 ft | 463 kts | 134° |
| 2026-04-14 17:07 | 48.93191 | 2.14778 | 29200 ft | 461 kts | 135° |
| 2026-04-14 17:08 | 48.88796 | 2.21831 | 29200 ft | 458 kts | 135° |
| 2026-04-14 17:08 | 48.84416 | 2.28824 | 29209 ft | 456 kts | 135° |
| 2026-04-14 17:09 | 48.80058 | 2.35771 | 29202 ft | 453 kts | 135° |
| 2026-04-14 17:09 | 48.75714 | 2.42681 | 29206 ft | 451 kts | 136° |
| 2026-04-14 17:10 | 48.71387 | 2.49539 | 29199 ft | 449 kts | 136° |
| 2026-04-14 17:10 | 48.67079 | 2.56355 | 29202 ft | 447 kts | 136° |
| 2026-04-14 17:11 | 48.62787 | 2.63123 | 29209 ft | 445 kts | 137° |
| 2026-04-14 17:11 | 48.58588 | 2.69955 | 29206 ft | 445 kts | 131° |
| 2026-04-14 17:12 | 48.55705 | 2.78248 | 29199 ft | 452 kts | 111° |
| 2026-04-14 17:12 | 48.54817 | 2.87690 | 29204 ft | 458 kts | 97° |
| 2026-04-14 17:13 | 48.54507 | 2.97274 | 29190 ft | 457 kts | 97° |
| 2026-04-14 17:13 | 48.54177 | 3.06830 | 29189 ft | 456 kts | 97° |
| 2026-04-14 17:14 | 48.53841 | 3.16369 | 29179 ft | 455 kts | 97° |
| 2026-04-14 17:14 | 48.53498 | 3.25895 | 29185 ft | 454 kts | 97° |
| 2026-04-14 17:15 | 48.53151 | 3.35342 | 29173 ft | 454 kts | 97° |
| 2026-04-14 17:15 | 48.52792 | 3.44841 | 29181 ft | 453 kts | 97° |
| 2026-04-14 17:16 | 48.52431 | 3.54339 | 29173 ft | 453 kts | 97° |
| 2026-04-14 17:16 | 48.52063 | 3.63829 | 29182 ft | 453 kts | 97° |
| 2026-04-14 17:17 | 48.51684 | 3.73324 | 29184 ft | 454 kts | 97° |
| 2026-04-14 17:17 | 48.51362 | 3.81285 | 29183 ft | 454 kts | 97° |
| 2026-04-14 17:18 | 48.50913 | 3.92324 | 29181 ft | 454 kts | 97° |
| 2026-04-14 17:18 | 48.50116 | 4.01715 | 29187 ft | 449 kts | 109° |
| 2026-04-14 17:19 | 48.48183 | 4.08886 | 29182 ft | 443 kts | 121° |
| 2026-04-14 17:19 | 48.44852 | 4.18521 | 29186 ft | 444 kts | 120° |
| 2026-04-14 17:20 | 48.42487 | 4.25372 | 29182 ft | 444 kts | 120° |
| 2026-04-14 17:20 | 48.39630 | 4.33609 | 29185 ft | 444 kts | 120° |
| 2026-04-14 17:21 | 48.36764 | 4.41850 | 29182 ft | 445 kts | 120° |
| 2026-04-14 17:21 | 48.33887 | 4.50077 | 29188 ft | 445 kts | 120° |
| 2026-04-14 17:22 | 48.31003 | 4.58300 | 29179 ft | 444 kts | 120° |
| 2026-04-14 17:22 | 48.28115 | 4.66507 | 29180 ft | 444 kts | 120° |
| 2026-04-14 17:23 | 48.25229 | 4.74703 | 29179 ft | 444 kts | 119° |
| 2026-04-14 17:23 | 48.22337 | 4.82888 | 29182 ft | 444 kts | 119° |
| 2026-04-14 17:24 | 48.19432 | 4.91061 | 29180 ft | 444 kts | 119° |
| 2026-04-14 17:24 | 48.16520 | 4.99209 | 29175 ft | 444 kts | 119° |
| 2026-04-14 17:25 | 48.13605 | 5.07352 | 29174 ft | 443 kts | 119° |
| 2026-04-14 17:25 | 48.10736 | 5.15515 | 29171 ft | 444 kts | 115° |
| 2026-04-14 17:26 | 48.08838 | 5.24304 | 29171 ft | 445 kts | 107° |